Biarritz, France

6:52 AM CEST on September 03, 2014 (GMT +0200)
Bayonne-Anglet | Change Station
CLOSE
Current Station
Airport
Location: Biarritz,
Elevation: 233 ft
Nearby Weather Stations

Elev 233 ft 43.47 °N, 1.53 °W | Updated 22 minutes ago

Clear
Clear
55 °F
Feels Like 55 °F
N
5
Wind Variable Wind from East

Today
High -- | Low -- °F
--% Chance of Precip.
Yesterday
High -- | Low -- °F
Precip. -- in
7:31 AM 8:38 PM
First Quarter, 58% visible
Pressure 29.92 in
Visibility -9999.0 miles
Clouds
Dew Point 54 °F
Humidity 94%
Rainfall 0.00 in
Snow Depth Not available.
UV Not available.
Pollen Not available.
Air Quality Not available.
Flu Activity Not available.
METAR LFBZ 030430Z 10004KT CAVOK 13/12 Q1013 NOSIG

More Conditions Fewer Conditions

Pressure 29.92 in
Visibility -9999.0 miles
Clouds
Dew Point 54 °F
Humidity 94%
Rainfall 0.00 in
Snow Depth Not available.
UV Not available.
Pollen Not available.
Air Quality Not available.
Flu Activity Not available.
METAR LFBZ 030430Z 10004KT CAVOK 13/12 Q1013 NOSIG

More Conditions Fewer Conditions

10-Day Weather Forecast

Almanac

Astronomy

Sep. 03, 2014 Rise Set
Actual Time 7:31 AM CEST 8:38 PM CEST
Civil Twilight 7:02 AM CEST 9:07 PM CEST
Nautical Twilight 6:27 AM CEST 9:42 PM CEST
Astronomical Twilight 5:50 AM CEST 10:19 PM CEST
Moon 4:11 PM CEST 1:07 AM CEST
Length of Visible Light 14h 04m
Length of Day
13h 06m
Tomorrow will be 2m 52s shorter.
First Quarter, 58% of the Moon is Illuminated
Today
First Quarter
Sep 8
Full
Sep 15
Last Quarter
Sep 24
New
Oct 1
First Quarter

Yesterday's Extremes

Country Highs Country Lows

Community

WunderPhotos

Upload Photos

1,749,875 photos uploaded!

Nearby

Snow Depth

Not available.

Earthquake Activity

City Distance Mag. Time & Date
No recent earthquake activity has been reported nearby.
Minimum magnitude displayed is 2.5.

Coastal Water Temperatures

Place Temperature
No Stations Reporting

Nearby Weather Stations